Pagrindinis puslapis
METAR-TAF:

METAR-TAF

Oro uostai :

Modesto, Kalifornija, Jungtinės Amerikos Valstijos

platuma: 37-37-27N, ilguma: 120-57-02W, Aukštis: 29 m

Dabartinis oras

Ataskaita buvo paskelbta 48 minutes, ne 22:53 UTC
Vėjas 3 kt nuo kintamojo kryptimis
Temperatūra 15°C
Drėgmė 48%
Slėgis 1016 hPa
Matomumas: 16.1 km
Giedras dangus

METAR: KMOD 252253Z VRB03KT 10SM CLR 15/04 A2999 RMK AO2 SLP156 T01500039

Laikas: 15:41 (23:41 UTC)

Prognozė

Ataskaita buvo paskelbta 10 minutes, ne 23:31 UTC
Prognozė galioja nuo 26 metu 00 UTC su 26 metu 24 UTC
Vėjas 3 kt nuo kintamojo kryptimis
Matomumas: 10 km
Giedras dangus
Nuo 26 metu 0400 UTC
Vėjas 2 kt iš Pietryčių
Matomumas: 6.4 km
Mažai debesys ne aukštis 25000 ft
rūkana

TAF: KMOD 252331Z 2600/2624 VRB03KT P6SM SKC FM260400 14002KT 4SM BR FEW250

Orai ataskaitas ir orų prognozės (METAR, TAF).

turimą stotys yra geltonos ir raudonos taškus žemėlapyje.

Perkelti pele per norėdami pamatyti stoties vardą.

Tada spustelėkite, norėdami matyti oro stebėjimo ir prognozės.

Norėdami pakeisti žemėlapį: spustelėkite ant žalios mygtukų su juodo kryžiaus žemyn,; žalią mygtuką su brūkšneliu, jei norite nutolinti; arba žalių rodyklių gretimoms žemėlapius.


METAR-TAF: